Flight Track Log - Related Links

Times and Time Zones

All times are in EDT time to prevent confusion due to time zone crossing. See the N178CT flight status page for this flight to view local times or setup timezone preferences in your user account.

Time Position Orientation Groundspeed Altitude Reporting Facility
EDT Latitude Longitude Course Direction KTS MPH feet Rate Location/Type
Mon 03:12:12 PM 40.6725 -82.6456 209° Southwest 88 101 3,500  Level Indianapolis Center
Mon 03:13:14 PM 40.6500 -82.6636 211° Southwest 93 107 3,400 -48 Descending Indianapolis Center
Mon 03:14:16 PM 40.6272 -82.6814 211° Southwest 94 108 3,400 48 Level Indianapolis Center
Mon 03:15:00 PM 40.6443 -82.6509 210° Southwest  Level Estimated
Mon 03:15:18 PM 40.6069 -82.7003 215° Southwest 90 104 3,500  Level Indianapolis Center
Mon 03:16:00 PM 40.6084 -82.6766 209° Southwest  Level FlightAware Approximate
Mon 03:16:20 PM 40.5850 -82.7156 208° Southwest 88 101 3,500  Level Indianapolis Center
Mon 03:17:00 PM 40.5725 -82.7022 209° Southwest  Level FlightAware Approximate
Mon 03:17:22 PM 40.5633 -82.7336 212° Southwest 90 104 3,500  Level Indianapolis Center
Mon 03:18:24 PM 40.5386 -82.7522 210° Southwest 87 100 3,500  Level Indianapolis Center
Mon 03:19:26 PM 40.5189 -82.7689 213° Southwest 85 98 3,500 48 Level Indianapolis Center
Mon 03:20:28 PM 40.4967 -82.7850 209° Southwest 88 101 3,600  Climbing Indianapolis Center
Mon 03:21:30 PM 40.4767 -82.8017 212° Southwest 91 105 3,500  Descending Indianapolis Center
Mon 03:22:32 PM 40.4511 -82.8214 210° Southwest 91 105 3,600 50 Climbing Indianapolis Center
Mon 03:23:30 PM 40.4292 -82.8358 207° Southwest 89 102 3,600  Level Indianapolis Center
Mon 03:23:34 PM 40.4292 -82.8364 270° West 90 104 3,600  Level Indianapolis Center
Mon 03:24:19 PM 40.4128 -82.8550 221° Southwest 93 107 3,600 97 Level Indianapolis Center
Mon 03:24:36 PM 40.4081 -82.8558 188° South 91 105 3,700 -152 Climbing Indianapolis Center
Mon 03:25:38 PM 40.3917 -82.8847 233° Southwest 94 108 3,400 -324 Descending Indianapolis Center
Mon 03:25:50 PM 40.3900 -82.8953 258° West 99 114 3,300 -125 Descending Indianapolis Center
Mon 03:26:26 PM 40.3778 -82.9128 227° Southwest 94 108 3,300 -120 Level Indianapolis Center
Mon 03:26:40 PM 40.3767 -82.9139 217° Southwest 96 110 3,200 -393 Descending Indianapolis Center
Mon 03:27:27 PM 40.3606 -82.9400 231° Southwest 97 112 2,900 -290 Descending Indianapolis Center
Mon 03:27:42 PM 40.3589 -82.9408 201° Southwest 97 112 2,900 -98 Level Indianapolis Center
Mon 03:28:28 PM 40.3411 -82.9672 229° Southwest 95 109 2,800 -194 Descending Indianapolis Center
Mon 03:28:44 PM 40.3375 -82.9714 221° Southwest 96 110 2,700 -308 Descending Indianapolis Center
Mon 03:29:46 PM 40.3189 -82.9967 226° Southwest 96 110 2,400 -229 Descending Indianapolis Center
Mon 03:30:29 PM 40.3111 -83.0200 246° West 89 102 2,300 -97 Descending Indianapolis Center
Mon 03:30:48 PM 40.3050 -83.0297 231° Southwest 95 109 2,300  Level Indianapolis Center

Login

Don't have an account? Register now (free) for customized features, flight alerts, and more!